Time;durP1;ratioP1;P1;durP2;ratioP2;P2;SDS_P1;SDS_P2;PMS_P1;PMS_P2;Temp;Humidity;BMP_temperature;BMP_pressure;BME280_temperature;BME280_humidity;BME280_pressure;Samples;Min_cycle;Max_cycle;Signal;HPM_P1;HPM_P2
2021/09/21 00:01:08;;;;;;;5.75;2.80;;;14.60;93.80;;;;;;5072036;28;20374;-85
2021/09/21 00:03:34;;;;;;;4.90;2.90;;;14.70;93.90;;;;;;5054926;28;20027;-84
2021/09/21 00:06:01;;;;;;;5.10;2.42;;;14.60;94.00;;;;;;5054813;28;20031;-84
2021/09/21 00:08:27;;;;;;;4.60;2.78;;;14.60;94.00;;;;;;5054610;28;20031;-84
2021/09/21 00:10:58;;;;;;;4.95;2.80;;;14.60;94.10;;;;;;5072029;28;20020;-85
2021/09/21 00:13:24;;;;;;;6.07;2.50;;;14.60;94.10;;;;;;5054594;28;20025;-84
2021/09/21 00:15:51;;;;;;;4.50;2.30;;;14.60;94.20;;;;;;5054695;28;20070;-84
2021/09/21 00:18:17;;;;;;;4.53;3.05;;;14.60;94.30;;;;;;5054862;28;20031;-86
2021/09/21 00:20:43;;;;;;;3.97;2.33;;;14.60;94.20;;;;;;5072650;28;20549;-86
2021/09/21 00:23:09;;;;;;;6.80;2.88;;;14.60;94.20;;;;;;5054751;28;20517;-84
2021/09/21 00:25:35;;;;;;;7.18;2.97;;;14.60;94.30;;;;;;5054923;28;20119;-84
2021/09/21 00:28:01;;;;;;;5.35;2.63;;;14.60;94.30;;;;;;5054922;28;20128;-84
2021/09/21 00:30:26;;;;;;;5.07;2.83;;;14.60;94.60;;;;;;5054548;28;20024;-84
2021/09/21 00:33:06;;;;;;;4.95;3.05;;;14.60;94.30;;;;;;5055015;28;20415;-84
2021/09/21 00:35:32;;;;;;;;;;;14.60;94.20;;;;;;5054651;28;20131;-84
2021/09/21 00:37:58;;;;;;;5.68;3.05;;;14.60;94.30;;;;;;5054724;28;19912;-85
2021/09/21 00:40:24;;;;;;;3.45;2.60;;;14.60;94.60;;;;;;5053785;28;20507;-85
2021/09/21 00:42:50;;;;;;;6.43;2.70;;;14.60;94.40;;;;;;5072266;28;20060;-85
2021/09/21 00:45:19;;;;;;;5.50;2.85;;;14.60;94.50;;;;;;5072513;28;20103;-84
2021/09/21 00:47:45;;;;;;;6.90;2.75;;;14.50;94.50;;;;;;5072245;28;20087;-84
2021/09/21 00:50:10;;;;;;;6.03;2.90;;;14.50;94.60;;;;;;5054000;28;20032;-84
2021/09/21 00:52:36;;;;;;;7.35;3.10;;;14.50;94.70;;;;;;5072610;28;20492;-84
2021/09/21 00:55:03;;;;;;;5.60;2.83;;;14.50;94.70;;;;;;5072499;28;20366;-84
2021/09/21 00:57:31;;;;;;;5.32;3.03;;;14.50;94.80;;;;;;5054457;28;20491;-85
2021/09/21 00:59:57;;;;;;;6.28;3.30;;;14.50;94.70;;;;;;5053933;28;20025;-84
2021/09/21 01:02:23;;;;;;;6.22;3.22;;;14.50;94.70;;;;;;5072792;28;20024;-84
2021/09/21 01:04:48;;;;;;;5.75;3.08;;;14.50;94.80;;;;;;5054831;28;20027;-84
2021/09/21 01:07:14;;;;;;;4.78;2.83;;;14.50;94.80;;;;;;5054623;28;20033;-84
2021/09/21 01:09:40;;;;;;;5.13;3.20;;;14.50;94.80;;;;;;5071992;28;20025;-85
2021/09/21 01:12:05;;;;;;;8.25;4.25;;;14.50;94.80;;;;;;5054783;28;20075;-84
2021/09/21 01:14:31;;;;;;;6.63;3.72;;;14.50;94.80;;;;;;5054867;28;20507;-85
2021/09/21 01:16:57;;;;;;;6.30;3.30;;;14.50;94.90;;;;;;5072710;28;20043;-84
2021/09/21 01:19:23;;;;;;;6.03;3.08;;;14.50;95.00;;;;;;5072217;28;20028;-85
2021/09/21 01:21:48;;;;;;;6.82;2.75;;;14.40;95.00;;;;;;5054660;28;20035;-84
2021/09/21 01:24:16;;;;;;;6.47;3.08;;;14.40;95.00;;;;;;5054523;28;20021;-86
2021/09/21 01:26:42;;;;;;;6.65;3.47;;;14.40;95.10;;;;;;5073077;28;20021;-84
2021/09/21 01:29:08;;;;;;;8.15;3.10;;;14.40;95.20;;;;;;5054228;28;20042;-84
2021/09/21 01:31:34;;;;;;;5.68;2.75;;;14.40;95.40;;;;;;5054883;28;20024;-85
2021/09/21 01:34:00;;;;;;;7.85;3.30;;;14.40;95.50;;;;;;5055003;28;20034;-84
2021/09/21 01:36:28;;;;;;;6.32;2.83;;;14.30;95.60;;;;;;5054558;28;20024;-84
2021/09/21 01:38:53;;;;;;;6.68;3.22;;;14.30;95.70;;;;;;5054230;28;20050;-87
2021/09/21 01:41:19;;;;;;;5.90;3.17;;;14.30;95.90;;;;;;5054671;28;20025;-84
2021/09/21 01:43:46;;;;;;;6.50;3.50;;;14.30;96.30;;;;;;5054361;28;20523;-85
2021/09/21 01:46:17;;;;;;;6.50;3.28;;;14.20;96.10;;;;;;5054391;28;20412;-84
2021/09/21 01:48:44;;;;;;;6.45;3.60;;;14.20;96.30;;;;;;5075966;28;20033;-85
2021/09/21 01:51:16;;;;;;;6.22;3.33;;;14.20;96.60;;;;;;5057937;28;20546;-84
2021/09/21 01:54:13;;;;;;;5.68;3.60;;;14.20;96.60;;;;;;5058272;28;20081;-85
2021/09/21 01:59:14;;;;;;;5.95;3.20;;;14.20;97.00;;;;;;5076239;28;20039;-84
2021/09/21 02:01:40;;;;;;;7.18;3.38;;;14.20;96.80;;;;;;5075404;28;20021;-85
2021/09/21 02:04:08;;;;;;;6.47;3.50;;;14.20;96.90;;;;;;5057843;28;20029;-85
2021/09/21 02:06:39;;;;;;;6.80;3.17;;;14.20;96.90;;;;;;5075561;28;20508;-84
2021/09/21 02:09:08;;;;;;;6.57;3.45;;;14.10;97.00;;;;;;5057498;28;20512;-84
2021/09/21 02:11:34;;;;;;;8.65;3.95;;;14.20;97.00;;;;;;5057481;28;20021;-85
2021/09/21 02:14:01;;;;;;;7.13;3.60;;;14.10;97.00;;;;;;5057880;28;20029;-84
2021/09/21 02:16:28;;;;;;;8.07;3.90;;;14.10;97.10;;;;;;5057640;28;20028;-85
2021/09/21 02:18:54;;;;;;;6.63;4.00;;;14.10;97.20;;;;;;5074200;28;20473;-84
2021/09/21 02:21:20;;;;;;;7.75;4.00;;;14.10;97.20;;;;;;5056944;28;20111;-85
2021/09/21 02:23:47;;;;;;;9.13;3.30;;;14.10;97.40;;;;;;5075908;28;20032;-85
2021/09/21 02:26:12;;;;;;;7.90;3.70;;;14.10;97.40;;;;;;5075550;28;20043;-85
2021/09/21 02:28:38;;;;;;;5.90;3.50;;;14.00;97.50;;;;;;5075846;28;20469;-85
2021/09/21 02:31:04;;;;;;;7.20;3.60;;;14.10;97.50;;;;;;5057760;28;20031;-85
2021/09/21 02:33:30;;;;;;;8.43;3.70;;;14.10;97.50;;;;;;5057710;28;20074;-86
2021/09/21 02:35:55;;;;;;;6.38;3.80;;;14.10;97.50;;;;;;5057570;28;20435;-84
2021/09/21 02:38:21;;;;;;;6.25;3.47;;;14.10;97.60;;;;;;5075800;28;20078;-84
2021/09/21 02:40:48;;;;;;;8.73;3.67;;;14.00;97.80;;;;;;5057251;28;20576;-84
2021/09/21 02:43:13;;;;;;;8.23;4.13;;;14.00;97.80;;;;;;5057615;28;20108;-84
2021/09/21 02:45:39;;;;;;;8.15;3.78;;;14.00;98.00;;;;;;5058069;28;20101;-84
2021/09/21 02:48:05;;;;;;;8.60;3.75;;;14.00;98.00;;;;;;5057422;28;20040;-84
2021/09/21 02:50:31;;;;;;;6.93;3.95;;;14.00;98.20;;;;;;5056586;28;20036;-85
2021/09/21 02:52:56;;;;;;;7.50;3.92;;;14.00;98.20;;;;;;5075304;28;20032;-85
2021/09/21 02:55:22;;;;;;;6.60;3.42;;;14.00;98.20;;;;;;5075771;28;20145;-86
2021/09/21 02:57:48;;;;;;;6.80;3.90;;;14.00;98.20;;;;;;5057171;28;20017;-84
2021/09/21 03:00:17;;;;;;;7.95;3.78;;;14.00;98.40;;;;;;5056440;28;20445;-84
2021/09/21 03:02:44;;;;;;;11.38;4.43;;;13.90;98.50;;;;;;5057532;28;20025;-85
2021/09/21 03:05:14;;;;;;;7.80;3.92;;;13.80;98.60;;;;;;5057886;28;20032;-84
2021/09/21 03:07:53;;;;;;;7.13;4.07;;;13.70;98.80;;;;;;5059596;28;20027;-84
2021/09/21 03:10:27;;;;;;;7.60;4.10;;;13.70;98.90;;;;;;5063577;28;20025;-85
2021/09/21 03:18:04;;;;;;;8.68;3.83;;;13.70;99.10;;;;;;5077190;28;20441;-84
2021/09/21 03:20:31;;;;;;;7.90;3.80;;;13.60;99.20;;;;;;5058549;28;20032;-84
2021/09/21 03:22:57;;;;;;;6.97;3.60;;;13.60;99.50;;;;;;5058403;28;20024;-84
2021/09/21 03:25:23;;;;;;;6.57;4.10;;;13.60;99.50;;;;;;5058818;28;20059;-84
2021/09/21 03:27:48;;;;;;;9.48;4.25;;;13.50;99.60;;;;;;5059135;28;20024;-84
2021/09/21 03:30:14;;;;;;;8.90;4.10;;;13.50;99.70;;;;;;5055561;28;20089;-84
2021/09/21 03:32:42;;;;;;;11.30;4.38;;;13.50;99.70;;;;;;5055686;28;20029;-84
2021/09/21 03:35:09;;;;;;;7.97;4.32;;;13.50;99.90;;;;;;5074161;28;20469;-84
2021/09/21 03:37:35;;;;;;;7.07;3.85;;;13.50;99.90;;;;;;5055992;28;20120;-84
2021/09/21 03:40:01;;;;;;;9.32;4.13;;;13.40;99.90;;;;;;5055396;28;20016;-84
2021/09/21 03:42:27;;;;;;;7.28;4.28;;;13.40;99.90;;;;;;5073590;28;20571;-84
2021/09/21 03:44:52;;;;;;;8.38;4.45;;;13.40;99.90;;;;;;5055706;28;20405;-84
2021/09/21 03:47:18;;;;;;;8.40;4.38;;;13.40;99.90;;;;;;5055406;28;20060;-84
2021/09/21 03:49:44;;;;;;;8.73;4.35;;;13.40;99.90;;;;;;5055256;28;20036;-84
2021/09/21 03:52:10;;;;;;;8.18;4.53;;;13.40;99.90;;;;;;5055858;28;20025;-84
2021/09/21 03:54:36;;;;;;;7.50;4.13;;;13.50;99.90;;;;;;5073675;28;20032;-86
2021/09/21 03:57:02;;;;;;;10.27;4.40;;;13.50;99.90;;;;;;5055670;28;20104;-85
2021/09/21 03:59:27;;;;;;;8.90;4.47;;;13.50;99.90;;;;;;5073546;28;20035;-84
2021/09/21 04:01:53;;;;;;;7.03;4.15;;;13.50;99.90;;;;;;5073754;28;20525;-84
2021/09/21 04:04:20;;;;;;;8.23;4.30;;;13.40;99.90;;;;;;5055543;28;20124;-84
2021/09/21 04:06:48;;;;;;;10.80;5.22;;;13.40;99.90;;;;;;5073358;28;20056;-84
2021/09/21 04:09:15;;;;;;;8.63;4.70;;;13.40;99.90;;;;;;5072954;28;20071;-84
2021/09/21 04:11:40;;;;;;;7.30;4.20;;;13.40;99.90;;;;;;5073602;28;20396;-84
2021/09/21 04:14:06;;;;;;;7.75;4.30;;;13.30;99.90;;;;;;5055663;28;20025;-85
2021/09/21 04:16:32;;;;;;;10.30;4.45;;;13.30;99.90;;;;;;5055693;28;20071;-84
2021/09/21 04:18:58;;;;;;;7.75;4.57;;;13.30;99.90;;;;;;5055464;28;20056;-84
2021/09/21 04:21:24;;;;;;;8.32;4.43;;;13.30;99.90;;;;;;5055569;28;20059;-84
2021/09/21 04:23:50;;;;;;;8.35;4.63;;;13.30;99.90;;;;;;5073831;28;20073;-84
2021/09/21 04:26:16;;;;;;;9.35;4.90;;;13.30;99.90;;;;;;5055488;28;20029;-84
2021/09/21 04:28:42;;;;;;;10.80;4.90;;;13.20;99.90;;;;;;5073504;28;20029;-84
2021/09/21 04:31:10;;;;;;;9.20;4.50;;;13.20;99.90;;;;;;5054383;28;20054;-84
2021/09/21 04:33:38;;;;;;;10.63;5.00;;;13.10;99.90;;;;;;5072606;28;20370;-85
2021/09/21 04:36:05;;;;;;;10.13;4.80;;;13.10;99.90;;;;;;5054711;28;20051;-84
2021/09/21 04:38:31;;;;;;;7.90;4.32;;;13.10;99.90;;;;;;5072423;28;20023;-85
2021/09/21 04:40:57;;;;;;;12.80;4.40;;;13.10;99.90;;;;;;5053951;28;20025;-86
2021/09/21 04:43:22;;;;;;;7.80;4.45;;;13.00;99.90;;;;;;5054386;28;20028;-84
2021/09/21 04:45:48;;;;;;;12.25;5.13;;;13.10;99.90;;;;;;5054583;28;20029;-84
2021/09/21 04:48:14;;;;;;;12.30;5.05;;;12.90;99.90;;;;;;5054144;28;20123;-84
2021/09/21 04:50:40;;;;;;;11.07;5.30;;;12.90;99.90;;;;;;5053861;28;20036;-84
2021/09/21 04:53:06;;;;;;;12.07;5.55;;;12.90;99.90;;;;;;5054209;28;20388;-85
2021/09/21 04:55:31;;;;;;;10.50;5.15;;;12.90;99.90;;;;;;5054454;28;20025;-84
2021/09/21 04:57:57;;;;;;;10.20;4.97;;;12.80;99.90;;;;;;5054661;28;20074;-85
2021/09/21 05:00:23;;;;;;;9.82;5.40;;;12.80;99.90;;;;;;5072006;28;20035;-85
2021/09/21 05:02:48;;;;;;;11.00;4.70;;;12.80;99.90;;;;;;5054598;28;20099;-84
2021/09/21 05:05:14;;;;;;;11.00;5.28;;;12.70;99.90;;;;;;5054510;28;20028;-84
2021/09/21 05:07:40;;;;;;;10.25;5.00;;;12.70;99.90;;;;;;5072437;28;20024;-85
2021/09/21 05:10:07;;;;;;;10.13;5.25;;;12.70;99.90;;;;;;5053749;28;20025;-85
2021/09/21 05:12:32;;;;;;;12.90;5.27;;;12.70;99.90;;;;;;5054419;28;20500;-84
2021/09/21 05:14:58;;;;;;;12.52;5.10;;;12.70;99.90;;;;;;5072393;28;20028;-85
2021/09/21 05:17:24;;;;;;;10.27;4.88;;;12.60;99.90;;;;;;5053809;28;20017;-85
2021/09/21 05:19:49;;;;;;;10.03;5.47;;;12.60;99.90;;;;;;5053654;28;20043;-84
2021/09/21 05:22:15;;;;;;;14.95;5.72;;;12.60;99.90;;;;;;5055379;28;20027;-84
2021/09/21 05:24:41;;;;;;;11.00;5.50;;;12.50;99.90;;;;;;5075968;28;20028;-85
2021/09/21 05:27:07;;;;;;;11.93;5.00;;;12.50;99.90;;;;;;5058206;28;20035;-84
2021/09/21 05:29:32;;;;;;;8.93;4.80;;;12.50;99.90;;;;;;5057474;28;20434;-85
2021/09/21 05:31:59;;;;;;;12.30;5.23;;;12.50;99.90;;;;;;5076058;28;20096;-85
2021/09/21 05:34:25;;;;;;;12.80;5.40;;;12.40;99.90;;;;;;5075849;28;20082;-84
2021/09/21 05:36:51;;;;;;;10.57;5.03;;;12.40;99.90;;;;;;5076063;28;20021;-84
2021/09/21 05:39:17;;;;;;;10.40;5.37;;;12.30;99.90;;;;;;5057221;28;20115;-85
2021/09/21 05:41:43;;;;;;;11.13;5.00;;;12.40;99.90;;;;;;5075795;28;20028;-84
2021/09/21 05:44:09;;;;;;;8.60;4.70;;;12.40;99.90;;;;;;5057912;28;20027;-84
2021/09/21 05:46:34;;;;;;;9.63;4.80;;;12.40;99.90;;;;;;5075734;28;20380;-85
2021/09/21 05:49:00;;;;;;;12.93;6.10;;;12.40;99.90;;;;;;5078366;28;20028;-84
2021/09/21 05:51:28;;;;;;;12.43;5.27;;;12.40;99.90;;;;;;5078764;28;20020;-84
2021/09/21 05:53:54;;;;;;;12.77;5.17;;;12.40;99.90;;;;;;5059918;28;20385;-83
2021/09/21 05:56:20;;;;;;;12.43;5.83;;;12.40;99.90;;;;;;5060047;28;20025;-84
2021/09/21 05:58:46;;;;;;;12.10;5.20;;;12.40;99.90;;;;;;5060444;28;20020;-84
2021/09/21 06:01:12;;;;;;;9.57;5.22;;;12.50;99.90;;;;;;5078469;28;20024;-84
2021/09/21 06:03:37;;;;;;;10.90;5.90;;;12.50;99.90;;;;;;5059654;28;20028;-84
2021/09/21 06:06:03;;;;;;;10.97;5.47;;;12.50;99.90;;;;;;5060704;28;20433;-84
2021/09/21 06:08:29;;;;;;;12.63;5.80;;;12.60;99.90;;;;;;5077723;28;20546;-84
2021/09/21 06:10:55;;;;;;;12.90;6.13;;;12.50;99.90;;;;;;5077654;28;20084;-84
2021/09/21 06:13:20;;;;;;;11.90;5.57;;;12.50;99.90;;;;;;5060105;28;20055;-83
2021/09/21 06:15:47;;;;;;;13.27;5.93;;;12.60;99.90;;;;;;5060203;28;20392;-84
2021/09/21 06:18:14;;;;;;;12.10;6.50;;;12.60;99.90;;;;;;5059571;28;20090;-84
2021/09/21 06:20:40;;;;;;;11.67;6.80;;;12.60;99.90;;;;;;5060724;28;20029;-84
2021/09/21 06:23:07;;;;;;;13.48;6.35;;;12.70;99.90;;;;;;5059629;28;20055;-84
2021/09/21 06:25:33;;;;;;;12.00;6.77;;;12.70;99.90;;;;;;5060044;28;20538;-83
2021/09/21 06:27:58;;;;;;;17.40;7.40;;;12.70;99.90;;;;;;5078318;28;20104;-84
2021/09/21 06:30:24;;;;;;;12.53;6.53;;;12.90;99.90;;;;;;5059352;28;20119;-84
2021/09/21 06:32:50;;;;;;;12.07;6.70;;;12.90;99.90;;;;;;5058784;28;20021;-84
2021/09/21 06:35:16;;;;;;;13.20;7.30;;;13.00;99.90;;;;;;5059392;28;20027;-85
2021/09/21 06:37:42;;;;;;;15.07;8.00;;;13.00;99.90;;;;;;5059493;28;20020;-85
2021/09/21 06:40:09;;;;;;;13.33;6.57;;;13.00;99.90;;;;;;5076260;28;20024;-84
2021/09/21 06:42:36;;;;;;;15.60;7.50;;;13.00;99.90;;;;;;5055967;28;20020;-84
2021/09/21 06:45:03;;;;;;;12.05;6.70;;;13.00;99.90;;;;;;5056053;28;20028;-85
2021/09/21 06:47:29;;;;;;;17.27;7.53;;;13.00;99.90;;;;;;5073786;28;20025;-85
2021/09/21 06:49:55;;;;;;;11.18;6.80;;;13.00;99.90;;;;;;5055405;28;20111;-85
2021/09/21 06:52:20;;;;;;;13.68;6.95;;;13.00;99.90;;;;;;5055896;28;20024;-84
2021/09/21 06:54:46;;;;;;;11.02;6.20;;;13.00;99.90;;;;;;5056170;28;20086;-84
2021/09/21 06:57:12;;;;;;;15.65;7.13;;;13.10;99.90;;;;;;5074166;28;20017;-83
2021/09/21 06:59:37;;;;;;;14.18;7.97;;;13.10;99.90;;;;;;5073450;28;20020;-84
2021/09/21 07:02:03;;;;;;;11.98;6.97;;;13.20;99.90;;;;;;5055687;28;20028;-84
2021/09/21 07:04:29;;;;;;;10.98;7.53;;;13.20;99.90;;;;;;5055973;28;20020;-85
2021/09/21 07:06:54;;;;;;;9.90;6.60;;;13.20;99.90;;;;;;5055866;28;20142;-84
2021/09/21 07:09:20;;;;;;;13.63;7.22;;;13.30;99.90;;;;;;5055341;28;20024;-84
2021/09/21 07:11:45;;;;;;;12.75;7.32;;;13.30;99.90;;;;;;5073877;28;20024;-84
2021/09/21 07:14:11;;;;;;;11.50;6.53;;;13.30;99.90;;;;;;5056097;28;20435;-85
2021/09/21 07:16:37;;;;;;;12.55;7.70;;;13.40;99.90;;;;;;5074193;28;20080;-84
2021/09/21 07:19:03;;;;;;;11.65;7.28;;;13.50;99.90;;;;;;5055364;28;20024;-84
2021/09/21 07:21:28;;;;;;;12.85;7.28;;;13.50;99.90;;;;;;5055943;28;20040;-83
2021/09/21 07:23:54;;;;;;;12.07;6.72;;;13.50;99.90;;;;;;5055860;28;20030;-85
2021/09/21 07:26:20;;;;;;;15.60;7.60;;;13.50;99.90;;;;;;5055387;28;20119;-84
2021/09/21 07:28:46;;;;;;;9.40;6.10;;;13.60;99.90;;;;;;5073138;28;20103;-84
2021/09/21 07:31:15;;;;;;;12.63;7.40;;;13.60;99.90;;;;;;5072857;28;20021;-85
2021/09/21 07:33:40;;;;;;;14.85;7.43;;;13.70;99.90;;;;;;5055223;28;20431;-85
2021/09/21 07:36:06;;;;;;;13.60;7.70;;;13.70;99.90;;;;;;5055015;28;20028;-84
2021/09/21 07:38:31;;;;;;;16.00;7.95;;;13.70;99.90;;;;;;5055022;28;20027;-84
2021/09/21 07:40:57;;;;;;;13.20;7.15;;;13.80;99.90;;;;;;5054385;28;20054;-84
2021/09/21 07:43:23;;;;;;;12.00;7.00;;;13.80;99.90;;;;;;5054969;28;20073;-84
2021/09/21 07:45:48;;;;;;;11.32;7.18;;;13.80;99.90;;;;;;5072495;28;20031;-84
2021/09/21 07:48:18;;;;;;;14.02;7.95;;;13.90;99.90;;;;;;5054737;28;20163;-84
2021/09/21 07:50:44;;;;;;;15.18;8.00;;;13.90;99.90;;;;;;5054154;28;20123;-84
2021/09/21 07:53:10;;;;;;;13.25;7.13;;;13.90;99.90;;;;;;5054544;28;20431;-84
2021/09/21 07:55:36;;;;;;;13.52;7.50;;;13.90;99.90;;;;;;5054625;28;20023;-85
2021/09/21 07:58:02;;;;;;;13.90;7.30;;;14.00;99.90;;;;;;5054593;28;20059;-84
2021/09/21 08:00:27;;;;;;;14.63;7.40;;;14.00;99.80;;;;;;5053873;28;20394;-84
2021/09/21 08:02:53;;;;;;;12.65;7.22;;;14.00;99.80;;;;;;5054437;28;20031;-85
2021/09/21 08:05:20;;;;;;;12.63;7.95;;;14.10;99.60;;;;;;5054698;28;20481;-85
2021/09/21 08:07:46;;;;;;;15.40;7.68;;;14.10;99.40;;;;;;5054647;28;20024;-84
2021/09/21 08:10:12;;;;;;;14.65;7.57;;;14.10;99.10;;;;;;5054002;28;20036;-83
2021/09/21 08:12:39;;;;;;;11.88;7.15;;;14.10;99.00;;;;;;5054398;28;20511;-85
2021/09/21 08:15:06;;;;;;;11.40;6.85;;;14.10;99.10;;;;;;5054708;28;20082;-85
2021/09/21 08:17:31;;;;;;;12.50;6.78;;;14.20;99.00;;;;;;5054385;28;20028;-85
2021/09/21 08:19:57;;;;;;;14.25;7.20;;;14.20;99.00;;;;;;5071724;28;20863;-84
2021/09/21 08:22:23;;;;;;;13.73;7.15;;;14.20;98.70;;;;;;5072297;28;20025;-84
2021/09/21 08:24:49;;;;;;;12.93;7.20;;;14.20;98.80;;;;;;5072582;28;20066;-85
2021/09/21 08:27:15;;;;;;;11.25;6.35;;;14.20;98.50;;;;;;5072352;28;20024;-84
2021/09/21 08:29:40;;;;;;;11.82;6.20;;;14.30;98.80;;;;;;5053774;28;20033;-85
2021/09/21 08:32:07;;;;;;;9.75;5.60;;;14.30;98.70;;;;;;5054049;28;20025;-84
2021/09/21 08:34:33;;;;;;;13.35;6.47;;;14.40;98.50;;;;;;5054414;28;20025;-84
2021/09/21 08:36:59;;;;;;;11.25;6.82;;;14.40;98.20;;;;;;5072227;28;20024;-85
2021/09/21 08:39:25;;;;;;;13.70;6.85;;;14.50;98.00;;;;;;5053776;28;20066;-85
2021/09/21 08:41:52;;;;;;;11.40;6.47;;;14.50;97.70;;;;;;5072241;28;20021;-85
2021/09/21 08:44:18;;;;;;;9.63;5.93;;;14.50;97.60;;;;;;5054331;28;20105;-85
2021/09/21 08:46:45;;;;;;;10.15;6.35;;;14.50;97.70;;;;;;5072172;28;20032;-85
2021/09/21 08:49:11;;;;;;;11.32;6.22;;;14.60;97.80;;;;;;5053637;28;20040;-85
2021/09/21 08:51:38;;;;;;;13.27;6.47;;;14.70;97.40;;;;;;5054331;28;20025;-84
2021/09/21 08:54:04;;;;;;;11.45;6.05;;;14.70;96.90;;;;;;5054159;28;20029;-84
2021/09/21 08:56:31;;;;;;;12.07;6.68;;;14.70;96.90;;;;;;5054467;28;20016;-85
2021/09/21 08:59:04;;;;;;;11.10;6.40;;;14.80;96.80;;;;;;5057635;28;20020;-84
2021/09/21 09:01:49;;;;;;;13.95;6.30;;;14.80;96.50;;;;;;5058194;28;20021;-84
2021/09/21 09:04:20;;;;;;;9.75;5.65;;;14.80;96.30;;;;;;5076097;28;20024;-84
2021/09/21 09:06:50;;;;;;;7.60;5.20;;;14.90;96.60;;;;;;5076109;28;20475;-85
2021/09/21 09:09:21;;;;;;;13.35;6.50;;;14.90;96.50;;;;;;5057448;28;20036;-85
2021/09/21 09:11:52;;;;;;;11.82;6.68;;;14.90;96.00;;;;;;5057741;28;20024;-84
2021/09/21 09:14:30;;;;;;;13.18;6.45;;;14.90;95.80;;;;;;5076082;28;20040;-84
2021/09/21 09:16:59;;;;;;;9.25;4.95;;;15.00;95.80;;;;;;5057975;28;20094;-84
2021/09/21 09:19:32;;;;;;;8.75;4.93;;;15.00;95.90;;;;;;5075314;28;20024;-85
2021/09/21 09:22:25;;;;;;;8.07;4.82;;;15.00;95.40;;;;;;5075760;28;20078;-84
2021/09/21 09:24:57;;;;;;;7.55;4.10;;;15.10;94.30;;;;;;5074571;28;20078;-85
2021/09/21 09:27:46;;;;;;;6.13;3.88;;;15.10;93.30;;;;;;5057416;28;20476;-84
2021/09/21 09:30:15;;;;;;;5.20;3.33;;;15.10;93.20;;;;;;5073916;28;20028;-84
2021/09/21 09:32:52;;;;;;;5.70;3.35;;;15.10;91.80;;;;;;5057243;28;20028;-85
2021/09/21 09:35:45;;;;;;;5.93;3.25;;;15.10;91.90;;;;;;5057521;28;20481;-84
2021/09/21 09:38:14;;;;;;;7.80;3.78;;;15.20;91.80;;;;;;5055921;28;20086;-85
2021/09/21 09:40:48;;;;;;;8.45;3.85;;;15.20;92.20;;;;;;5057154;28;20117;-85
2021/09/21 09:43:17;;;;;;;7.53;3.42;;;15.20;91.90;;;;;;5075132;28;20377;-84
2021/09/21 09:45:45;;;;;;;6.25;3.60;;;15.20;91.80;;;;;;5075555;28;20039;-85
2021/09/21 09:48:17;;;;;;;7.68;4.28;;;15.30;91.70;;;;;;5057466;28;20036;-84
2021/09/21 09:50:44;;;;;;;11.43;5.22;;;15.30;91.80;;;;;;5074909;28;20082;-84
2021/09/21 09:53:13;;;;;;;6.25;3.80;;;15.30;91.80;;;;;;5075282;28;20029;-84
2021/09/21 09:55:40;;;;;;;7.30;4.00;;;15.30;92.00;;;;;;5075005;28;20386;-84
2021/09/21 09:58:07;;;;;;;6.80;3.85;;;15.40;91.50;;;;;;5057144;28;20024;-84
2021/09/21 10:00:35;;;;;;;6.53;3.17;;;15.40;91.40;;;;;;5056503;28;20473;-85
2021/09/21 10:03:02;;;;;;;5.20;2.92;;;15.40;90.90;;;;;;5075223;28;20025;-84
2021/09/21 10:05:30;;;;;;;5.38;2.85;;;15.40;90.20;;;;;;5074958;28;20052;-84
2021/09/21 10:07:57;;;;;;;6.03;3.17;;;15.50;90.20;;;;;;5074598;28;20085;-84
2021/09/21 10:10:24;;;;;;;4.63;2.53;;;15.50;87.30;;;;;;5074314;28;20028;-84
2021/09/21 10:12:51;;;;;;;5.20;2.88;;;15.50;86.60;;;;;;5056848;28;20059;-84
2021/09/21 10:15:17;;;;;;;4.90;2.70;;;15.60;85.40;;;;;;5074931;28;20024;-83
2021/09/21 10:17:57;;;;;;;7.50;2.63;;;15.60;84.90;;;;;;5056765;28;20032;-84
2021/09/21 10:20:34;;;;;;;4.45;2.53;;;15.70;84.60;;;;;;5056204;28;20024;-84
2021/09/21 10:23:01;;;;;;;6.15;3.20;;;15.80;84.70;;;;;;5056845;28;20069;-84
2021/09/21 10:25:42;;;;;;;5.53;3.17;;;15.80;85.40;;;;;;5074515;28;20028;-84
2021/09/21 10:28:19;;;;;;;6.88;2.80;;;15.90;86.00;;;;;;5074608;28;20396;-84
2021/09/21 10:30:53;;;;;;;10.32;3.75;;;15.90;86.70;;;;;;5056072;28;20111;-85
2021/09/21 10:33:22;;;;;;;4.90;3.33;;;15.90;85.60;;;;;;5074297;28;20020;-84
2021/09/21 10:35:49;;;;;;;5.50;3.38;;;15.90;84.80;;;;;;5056481;28;20430;-84
2021/09/21 10:38:19;;;;;;;5.53;2.95;;;15.90;84.70;;;;;;5074395;28;20035;-84
2021/09/21 10:40:51;;;;;;;4.72;2.80;;;15.90;84.10;;;;;;5055769;28;20032;-84
2021/09/21 10:43:31;;;;;;;4.68;2.67;;;15.90;83.90;;;;;;5074015;28;20100;-84
2021/09/21 10:46:12;;;;;;;5.72;3.00;;;15.90;84.80;;;;;;5056402;28;20488;-83
2021/09/21 10:48:43;;;;;;;3.42;2.45;;;15.90;84.40;;;;;;5073932;28;20028;-84
2021/09/21 10:51:09;;;;;;;4.13;2.40;;;15.90;84.60;;;;;;5055512;28;20032;-85
2021/09/21 10:53:36;;;;;;;4.50;2.70;;;15.90;85.10;;;;;;5074017;28;20031;-84
2021/09/21 10:56:02;;;;;;;5.00;2.90;;;15.80;84.40;;;;;;5073968;28;20361;-85
2021/09/21 10:58:28;;;;;;;4.95;2.60;;;15.90;83.60;;;;;;5055871;28;20027;-84
2021/09/21 11:00:55;;;;;;;5.90;2.40;;;15.90;83.20;;;;;;5073626;28;20040;-84
2021/09/21 11:03:25;;;;;;;4.00;2.30;;;15.90;83.30;;;;;;5056617;28;20110;-85
2021/09/21 11:05:53;;;;;;;3.60;1.90;;;15.90;82.90;;;;;;5077769;28;20024;-84
2021/09/21 11:08:25;;;;;;;5.18;2.33;;;16.00;82.20;;;;;;5056329;28;20059;-85
2021/09/21 11:10:54;;;;;;;5.22;1.90;;;16.00;82.60;;;;;;5067883;28;20035;-84
2021/09/21 11:13:25;;;;;;;4.13;2.00;;;16.10;82.80;;;;;;5065050;28;20024;-84
2021/09/21 11:15:51;;;;;;;3.95;1.85;;;16.10;82.40;;;;;;5063400;28;20370;-84
2021/09/21 11:18:19;;;;;;;3.67;1.88;;;16.10;81.40;;;;;;5078007;28;20027;-84
2021/09/21 11:20:59;;;;;;;3.00;1.70;;;16.20;80.90;;;;;;5058773;28;20439;-84
2021/09/21 11:23:33;;;;;;;3.30;1.63;;;16.20;80.80;;;;;;5075698;28;20032;-84
2021/09/21 11:26:02;;;;;;;4.32;1.75;;;16.20;80.50;;;;;;5058621;28;20038;-84
2021/09/21 11:28:37;;;;;;;4.80;2.30;;;16.20;80.20;;;;;;5059086;28;20078;-85
2021/09/21 11:31:04;;;;;;;5.57;1.90;;;16.30;79.80;;;;;;5077067;28;20032;-84
2021/09/21 11:33:32;;;;;;;2.58;1.60;;;16.30;80.30;;;;;;5060493;28;20452;-84
2021/09/21 11:36:05;;;;;;;2.97;1.77;;;16.30;80.90;;;;;;5061554;28;20078;-85
2021/09/21 11:38:34;;;;;;;4.47;2.00;;;16.30;81.40;;;;;;5078687;28;20059;-84
2021/09/21 11:41:01;;;;;;;3.35;1.83;;;16.30;81.90;;;;;;5060143;28;20552;-84
2021/09/21 11:43:27;;;;;;;3.83;2.25;;;16.30;82.30;;;;;;5078684;28;20025;-83
2021/09/21 11:45:53;;;;;;;4.63;1.90;;;16.30;82.60;;;;;;5060810;28;20028;-83
2021/09/21 11:48:20;;;;;;;4.88;1.95;;;16.30;83.00;;;;;;5079394;28;20044;-83
2021/09/21 11:50:47;;;;;;;4.53;2.03;;;16.40;83.40;;;;;;5062303;28;20029;-84
2021/09/21 11:53:15;;;;;;;3.47;1.80;;;16.30;82.70;;;;;;5078828;28;20056;-85
2021/09/21 11:55:44;;;;;;;3.88;2.00;;;16.40;82.00;;;;;;5077762;28;20030;-85
2021/09/21 11:58:11;;;;;;;5.25;2.40;;;16.50;82.50;;;;;;5060563;28;20428;-84
2021/09/21 12:00:39;;;;;;;3.72;1.85;;;16.50;79.10;;;;;;5077978;28;20021;-84
2021/09/21 12:03:06;;;;;;;6.38;2.72;;;16.50;80.40;;;;;;5060577;28;20028;-85
2021/09/21 12:05:33;;;;;;;4.80;2.00;;;16.60;79.10;;;;;;5060593;28;20096;-85
2021/09/21 12:08:01;;;;;;;4.85;1.95;;;16.60;78.40;;;;;;5059562;28;20024;-84
2021/09/21 12:10:28;;;;;;;5.90;2.55;;;16.60;79.40;;;;;;5059537;28;20047;-84
2021/09/21 12:13:29;;;;;;;4.32;2.13;;;16.70;78.90;;;;;;5059550;28;20028;-84
2021/09/21 12:15:58;;;;;;;4.55;2.17;;;16.80;76.60;;;;;;5058096;28;20052;-84
2021/09/21 12:18:25;;;;;;;3.63;1.80;;;16.70;75.90;;;;;;5077562;28;20484;-84
2021/09/21 12:20:59;;;;;;;3.90;2.10;;;16.70;76.50;;;;;;5058882;28;20028;-84
2021/09/21 12:23:28;;;;;;;3.92;1.80;;;16.70;77.60;;;;;;5058661;28;20028;-83
2021/09/21 12:25:55;;;;;;;2.65;1.80;;;16.70;77.90;;;;;;5058754;28;20029;-84
2021/09/21 12:28:32;;;;;;;2.90;1.90;;;16.70;78.70;;;;;;5076453;28;20032;-84
2021/09/21 12:31:05;;;;;;;5.25;2.20;;;16.70;79.50;;;;;;5075971;28;20066;-85
2021/09/21 12:33:37;;;;;;;3.95;1.85;;;16.70;78.90;;;;;;5076232;28;20020;-84
2021/09/21 12:36:04;;;;;;;5.40;2.33;;;16.80;78.80;;;;;;5058532;28;20048;-84
2021/09/21 12:38:31;;;;;;;5.03;1.95;;;16.80;79.40;;;;;;5058248;28;20025;-85
2021/09/21 12:41:03;;;;;;;4.00;1.73;;;16.80;80.10;;;;;;5058493;28;20047;-84
2021/09/21 12:43:41;;;;;;;5.72;1.92;;;16.80;80.50;;;;;;5058850;28;20397;-86
2021/09/21 12:46:09;;;;;;;5.25;2.15;;;16.80;80.90;;;;;;5076394;28;20108;-84
2021/09/21 12:48:41;;;;;;;4.53;2.00;;;16.70;81.10;;;;;;5060093;28;20032;-84
2021/09/21 12:51:09;;;;;;;7.30;2.92;;;16.80;79.20;;;;;;5062320;28;20021;-84
2021/09/21 12:53:35;;;;;;;10.48;3.35;;;16.90;80.60;;;;;;5079468;28;20067;-84